LZSL METAR and TAF | Updated Today

LZSL METAR

Sliač Airport

Sliač Airport (LZSL) hasn't published a METAR.
We found the following current weather conditions for Tri Duby from other sources.

Sliač Airport (LZSL) METAR

  • Weather conditions right now at LZSL:
  • Present conditions: Clear
  • Clouds: Clear sky
  • Cloud cover: 9%
  • Wind: 72 at 2kts
  • Temperature: -5.9 celsius
  • Feels like: -5.9 celsius
  • Pressure: 1014mb
  • Humidity: 88%


Useful to know...

LZSL TAF

Sliač Airport

TAF LZSL 080430Z 0806/0818 VRB02KT 0300 FZFG OVC001 BECMG 0808/0810 CAVOK
Observation time: 2:34 hr. ago
Need help? Read our tutorial on how to read TAFs or read the parsed version below.

Parsed version of TAF for Sliač Airport (LZSL)

  • From 08 December at 06:00 UTC, to day 08 of the month at 18:00 UTC
  • Clouds: Overcast sky at 30 meters
  • Visibility: 300 meters
  • Wind: Variable at 2
  • Other: Freezing fog
  • Expected to arise soon, from 08 December at 08:00 UTC, to day 08 of the month at 10:00 UTC
  • Visibility: Greater than 10 km

Airports near LZSL

LZLU Weather
Region: Lučenec

Lučenec Airport

Not found in our database
LZZI Weather
IATA: ILZ
Region: Žilina

Žilina Airport

Found in our database